createdAt,value
2022-10-06T00:01:04.126Z,11.30
2022-10-06T00:03:32.195Z,11.26
2022-10-06T00:06:01.468Z,11.27
2022-10-06T00:08:29.757Z,11.23
2022-10-06T00:10:58.540Z,11.21
2022-10-06T00:13:28.433Z,11.20
2022-10-06T00:15:56.454Z,11.25
2022-10-06T00:18:24.607Z,11.22
2022-10-06T00:20:56.821Z,11.25
2022-10-06T00:23:24.968Z,11.22
2022-10-06T00:25:53.107Z,11.23
2022-10-06T00:28:21.630Z,11.17
2022-10-06T00:30:53.532Z,11.15
2022-10-06T00:33:21.771Z,11.12
2022-10-06T00:35:56.836Z,11.11
2022-10-06T00:38:26.054Z,11.07
2022-10-06T00:40:54.144Z,11.06
2022-10-06T00:43:53.092Z,11.00
2022-10-06T00:46:31.998Z,10.99
2022-10-06T00:49:06.069Z,10.99
2022-10-06T00:51:35.194Z,10.94
2022-10-06T00:54:03.830Z,10.95
2022-10-06T00:56:32.774Z,10.94
2022-10-06T00:59:01.177Z,10.95
2022-10-06T01:01:32.498Z,10.96
2022-10-06T01:04:06.069Z,10.95
2022-10-06T01:06:45.197Z,10.95
2022-10-06T01:09:14.328Z,10.93
2022-10-06T01:11:42.724Z,10.93
2022-10-06T01:14:11.196Z,10.93
2022-10-06T01:16:44.656Z,10.91
2022-10-06T01:19:22.779Z,10.89
2022-10-06T01:21:52.161Z,10.90
2022-10-06T01:24:21.698Z,10.89
2022-10-06T01:26:52.743Z,10.92
2022-10-06T01:29:21.522Z,10.90
2022-10-06T01:31:49.972Z,10.88
2022-10-06T01:34:17.918Z,10.90
2022-10-06T01:36:46.578Z,10.84
2022-10-06T01:39:14.995Z,10.85
2022-10-06T01:41:47.672Z,10.80
2022-10-06T01:44:16.213Z,10.81
2022-10-06T01:46:44.179Z,10.80
2022-10-06T01:49:12.223Z,10.79
2022-10-06T01:52:02.535Z,10.76
2022-10-06T01:54:40.658Z,10.79
2022-10-06T01:57:14.036Z,10.74
2022-10-06T01:59:58.205Z,10.74
2022-10-06T02:02:40.474Z,10.72
2022-10-06T02:05:24.361Z,10.74
2022-10-06T02:08:16.399Z,10.70
2022-10-06T02:10:51.330Z,10.65
2022-10-06T02:13:36.372Z,10.63
2022-10-06T02:16:17.053Z,10.56
2022-10-06T02:18:53.212Z,10.54
2022-10-06T02:21:31.796Z,10.55
2022-10-06T02:24:15.767Z,10.48
2022-10-06T02:27:01.812Z,10.49
2022-10-06T02:29:46.910Z,10.46
2022-10-06T02:32:56.824Z,10.39
2022-10-06T02:35:39.958Z,10.34
2022-10-06T02:38:19.524Z,10.38
2022-10-06T02:40:50.218Z,10.36
2022-10-06T02:43:23.575Z,10.31
2022-10-06T02:46:22.599Z,10.32
2022-10-06T02:55:22.254Z,10.29
2022-10-06T02:58:10.184Z,10.28
2022-10-06T03:00:47.290Z,10.32
2022-10-06T03:03:52.875Z,10.29
2022-10-06T03:06:43.729Z,10.31
2022-10-06T03:09:37.968Z,10.29
2022-10-06T03:12:06.910Z,10.30
2022-10-06T03:15:10.845Z,10.26
2022-10-06T03:18:06.864Z,10.22
2022-10-06T03:20:57.627Z,10.19
2022-10-06T03:23:54.689Z,10.21
2022-10-06T03:26:38.672Z,10.25
2022-10-06T03:29:32.133Z,10.21
2022-10-06T03:32:22.041Z,10.21
2022-10-06T03:35:10.752Z,10.23
2022-10-06T03:38:05.861Z,10.20
2022-10-06T03:41:36.549Z,10.24
2022-10-06T03:44:20.799Z,10.18
2022-10-06T03:47:16.065Z,10.18
2022-10-06T03:49:52.359Z,10.16
2022-10-06T03:53:22.363Z,10.10
2022-10-06T03:56:51.220Z,10.08
2022-10-06T03:59:44.039Z,10.08
2022-10-06T04:02:34.032Z,10.10
2022-10-06T04:05:16.042Z,10.11
2022-10-06T04:08:07.509Z,10.16
2022-10-06T04:14:41.061Z,10.20
2022-10-06T04:24:31.364Z,10.19
2022-10-06T04:27:35.855Z,10.21
2022-10-06T04:34:46.760Z,10.16
2022-10-06T04:37:52.487Z,10.12
2022-10-06T04:41:10.809Z,10.14
2022-10-06T04:43:52.697Z,10.12
2022-10-06T04:46:49.442Z,10.08
2022-10-06T04:49:31.390Z,10.04
2022-10-06T04:51:59.535Z,10.03
2022-10-06T04:54:33.686Z,10.00
2022-10-06T04:57:02.864Z,9.97
2022-10-06T04:59:49.557Z,10.01
2022-10-06T05:02:20.779Z,10.03
2022-10-06T05:04:53.321Z,10.09
2022-10-06T05:07:24.257Z,10.14
2022-10-06T05:09:52.303Z,10.11
2022-10-06T05:12:20.447Z,10.14
2022-10-06T05:14:48.353Z,10.19
2022-10-06T05:17:16.956Z,10.19
2022-10-06T05:19:46.946Z,10.20
2022-10-06T05:22:15.034Z,10.22
2022-10-06T05:24:43.110Z,10.30
2022-10-06T05:27:11.140Z,10.33
2022-10-06T05:29:39.586Z,10.33
2022-10-06T05:32:10.124Z,10.40
2022-10-06T05:34:39.028Z,10.41
2022-10-06T05:37:09.495Z,10.44
2022-10-06T05:39:37.644Z,10.45
2022-10-06T05:42:06.454Z,10.47
2022-10-06T05:44:34.899Z,10.49
2022-10-06T05:47:07.924Z,10.50
2022-10-06T05:49:36.688Z,10.53
2022-10-06T05:52:06.079Z,10.56
2022-10-06T05:54:38.352Z,10.56
2022-10-06T05:57:08.003Z,10.58
2022-10-06T05:59:36.496Z,10.65
2022-10-06T06:02:05.912Z,10.70
2022-10-06T06:04:53.917Z,10.72
2022-10-06T06:07:21.951Z,10.76
2022-10-06T06:09:51.494Z,10.79
2022-10-06T06:12:20.208Z,10.81
2022-10-06T06:15:11.577Z,10.85
2022-10-06T06:17:48.049Z,10.90
2022-10-06T06:20:16.072Z,10.95
2022-10-06T06:22:44.842Z,10.96
2022-10-06T06:25:14.478Z,10.97
2022-10-06T06:27:50.742Z,11.03
2022-10-06T06:30:19.040Z,11.08
2022-10-06T06:32:47.231Z,11.14
2022-10-06T06:35:15.260Z,11.17
2022-10-06T06:37:45.081Z,11.18
2022-10-06T06:40:14.679Z,11.22
2022-10-06T06:42:42.737Z,11.28
2022-10-06T06:45:22.673Z,11.33
2022-10-06T06:48:04.283Z,11.39
2022-10-06T06:50:33.445Z,11.44
2022-10-06T06:53:02.550Z,11.50
2022-10-06T06:55:34.250Z,11.54
2022-10-06T06:58:02.402Z,11.62
2022-10-06T07:00:35.226Z,11.67
2022-10-06T07:03:04.465Z,11.74
2022-10-06T07:05:33.518Z,11.79
2022-10-06T07:08:01.475Z,11.83
2022-10-06T07:10:35.357Z,11.88
2022-10-06T07:13:06.853Z,11.95
2022-10-06T07:15:52.196Z,12.00
2022-10-06T07:18:37.691Z,12.09
2022-10-06T07:21:28.115Z,12.12
2022-10-06T07:24:13.469Z,12.21
2022-10-06T07:26:41.619Z,12.29
2022-10-06T07:29:11.242Z,12.32
2022-10-06T07:31:43.030Z,12.39
2022-10-06T07:34:11.032Z,12.44
2022-10-06T07:36:39.620Z,12.51
2022-10-06T07:39:10.487Z,12.56
2022-10-06T07:41:39.114Z,12.59
2022-10-06T07:44:08.150Z,12.67
2022-10-06T07:46:39.171Z,12.73
2022-10-06T07:49:11.855Z,12.77
2022-10-06T07:51:41.284Z,12.84
2022-10-06T07:54:09.361Z,12.90
2022-10-06T07:56:52.963Z,13.00
2022-10-06T07:59:21.267Z,13.03
2022-10-06T08:01:52.524Z,13.11
2022-10-06T08:04:20.551Z,13.16
2022-10-06T08:06:49.519Z,13.22
2022-10-06T08:09:17.558Z,13.28
2022-10-06T08:11:47.335Z,13.34
2022-10-06T08:14:15.282Z,13.39
2022-10-06T08:16:43.427Z,13.46
2022-10-06T08:19:14.578Z,13.50
2022-10-06T08:21:42.542Z,13.57
2022-10-06T08:24:11.019Z,13.60
2022-10-06T08:26:39.078Z,13.68
2022-10-06T08:29:07.083Z,13.73
2022-10-06T08:31:35.111Z,13.77
2022-10-06T08:34:03.152Z,13.81
2022-10-06T08:36:32.898Z,13.85
2022-10-06T08:39:01.429Z,13.90
2022-10-06T08:41:40.286Z,13.94
2022-10-06T08:44:22.046Z,13.94
2022-10-06T08:46:55.378Z,13.96
2022-10-06T08:49:27.005Z,14.03
2022-10-06T08:52:06.221Z,14.05
2022-10-06T08:54:41.174Z,14.10
2022-10-06T08:57:18.778Z,14.16
2022-10-06T08:59:53.875Z,14.19
2022-10-06T09:02:30.287Z,14.26
2022-10-06T09:05:01.291Z,14.32
2022-10-06T09:07:39.955Z,14.35
2022-10-06T09:10:24.435Z,14.36
2022-10-06T09:12:55.983Z,14.41
2022-10-06T09:15:34.051Z,14.45
2022-10-06T09:18:10.736Z,14.43
2022-10-06T09:20:43.477Z,14.49
2022-10-06T09:23:37.998Z,14.49
2022-10-06T09:26:07.260Z,14.57
2022-10-06T09:28:35.223Z,14.57
2022-10-06T09:31:04.025Z,14.60
2022-10-06T09:33:39.919Z,14.58
2022-10-06T09:36:10.273Z,14.58
2022-10-06T09:38:54.337Z,14.64
2022-10-06T09:41:31.771Z,14.64
2022-10-06T09:44:01.513Z,14.62
2022-10-06T09:46:32.772Z,14.68
2022-10-06T09:49:18.510Z,14.80
2022-10-06T09:52:01.079Z,14.93
2022-10-06T09:54:31.274Z,14.98
2022-10-06T09:57:23.222Z,14.97
2022-10-06T10:00:00.176Z,15.03
2022-10-06T10:02:36.998Z,15.09
2022-10-06T10:05:07.762Z,15.05
2022-10-06T10:07:37.496Z,15.04
2022-10-06T10:10:20.215Z,14.97
2022-10-06T10:12:52.101Z,15.06
2022-10-06T10:15:31.235Z,15.02
2022-10-06T10:18:03.073Z,15.00
2022-10-06T10:20:37.614Z,14.99
2022-10-06T10:23:19.863Z,14.97
2022-10-06T10:26:04.930Z,15.01
2022-10-06T10:29:12.331Z,15.13
2022-10-06T10:31:50.882Z,15.23
2022-10-06T10:34:38.307Z,15.18
2022-10-06T10:37:13.438Z,15.20
2022-10-06T10:39:47.536Z,15.19
2022-10-06T10:42:22.018Z,15.15
2022-10-06T10:44:56.058Z,15.16
2022-10-06T10:47:27.902Z,15.17
2022-10-06T10:50:04.203Z,15.16
2022-10-06T10:52:42.455Z,15.19
2022-10-06T10:55:23.527Z,15.10
2022-10-06T10:57:54.993Z,15.19
2022-10-06T11:00:27.117Z,15.19
2022-10-06T11:02:58.400Z,15.11
2022-10-06T11:05:38.541Z,15.16
2022-10-06T11:08:15.450Z,15.17
2022-10-06T11:10:49.244Z,15.15
2022-10-06T11:13:30.641Z,15.13
2022-10-06T11:16:17.867Z,15.16
2022-10-06T11:19:09.908Z,15.10
2022-10-06T11:21:44.554Z,15.14
2022-10-06T11:24:20.849Z,15.15
2022-10-06T11:27:23.008Z,15.22
2022-10-06T11:30:03.295Z,15.14
2022-10-06T11:32:43.914Z,15.20
2022-10-06T11:35:19.355Z,15.22
2022-10-06T11:37:54.428Z,15.29
2022-10-06T11:40:32.905Z,15.29
2022-10-06T11:43:07.576Z,15.23
2022-10-06T11:45:55.319Z,15.30
2022-10-06T11:48:31.135Z,15.30
2022-10-06T11:51:29.898Z,15.29
2022-10-06T11:54:03.283Z,15.31
2022-10-06T11:56:41.224Z,15.39
2022-10-06T11:59:28.584Z,15.32
2022-10-06T12:02:00.886Z,15.32
2022-10-06T12:04:30.437Z,15.32
2022-10-06T12:08:14.710Z,15.37
2022-10-06T12:11:16.447Z,15.44
2022-10-06T12:15:12.126Z,15.48
2022-10-06T12:17:15.357Z,15.57
2022-10-06T12:20:03.495Z,15.61
2022-10-06T12:23:23.120Z,15.67
2022-10-06T12:26:27.743Z,15.66
2022-10-06T12:29:47.168Z,15.69
2022-10-06T12:32:53.171Z,15.71
2022-10-06T12:35:44.762Z,15.70
2022-10-06T12:38:58.548Z,15.79
2022-10-06T12:42:06.603Z,15.82
2022-10-06T12:44:40.037Z,15.85
2022-10-06T12:47:24.762Z,15.87
2022-10-06T12:50:28.936Z,15.93
2022-10-06T12:53:09.413Z,15.93
2022-10-06T12:55:55.012Z,16.05
2022-10-06T12:58:40.435Z,16.06
2022-10-06T13:04:43.036Z,16.06
2022-10-06T13:07:18.966Z,16.14
2022-10-06T13:10:12.069Z,16.06
2022-10-06T13:12:52.345Z,16.10
2022-10-06T13:15:40.667Z,16.14
2022-10-06T13:18:36.776Z,16.20
2022-10-06T13:21:20.452Z,16.20
2022-10-06T13:23:56.753Z,16.17
2022-10-06T13:27:11.595Z,16.16
2022-10-06T13:30:26.760Z,16.25
2022-10-06T13:33:05.590Z,16.24
2022-10-06T13:35:43.145Z,16.23
2022-10-06T13:41:38.392Z,16.16
2022-10-06T13:44:30.063Z,16.16
2022-10-06T13:47:10.428Z,16.19
2022-10-06T13:50:03.391Z,16.09
2022-10-06T13:52:39.267Z,16.12
2022-10-06T13:55:25.456Z,16.12
2022-10-06T13:58:22.221Z,16.07
2022-10-06T14:01:26.700Z,16.01
2022-10-06T14:04:16.391Z,16.01
2022-10-06T14:06:56.624Z,15.95
2022-10-06T14:09:45.460Z,15.95
2022-10-06T14:12:20.631Z,16.02
2022-10-06T14:15:07.696Z,15.96
2022-10-06T14:18:39.560Z,15.94
2022-10-06T14:21:53.434Z,15.92
2022-10-06T14:24:56.661Z,15.90
2022-10-06T14:27:45.459Z,15.88
2022-10-06T14:30:21.403Z,15.95
2022-10-06T14:33:15.152Z,15.99
2022-10-06T14:35:52.664Z,15.99
2022-10-06T14:38:22.215Z,15.97
2022-10-06T14:41:01.808Z,15.89
2022-10-06T14:43:38.910Z,15.88
2022-10-06T14:46:14.311Z,15.90
2022-10-06T14:48:42.384Z,15.91
2022-10-06T14:51:10.799Z,15.89
2022-10-06T14:53:40.449Z,15.87
2022-10-06T14:56:10.707Z,15.84
2022-10-06T14:58:48.158Z,15.86
2022-10-06T15:02:04.438Z,15.88
2022-10-06T15:04:36.101Z,15.90
2022-10-06T15:07:24.632Z,15.92
2022-10-06T15:10:15.364Z,15.90
2022-10-06T15:13:02.404Z,15.88
2022-10-06T15:16:00.641Z,15.85
2022-10-06T15:18:34.238Z,15.80
2022-10-06T15:21:04.466Z,15.81
2022-10-06T15:23:37.009Z,15.77
2022-10-06T15:26:31.538Z,15.77
2022-10-06T15:29:13.793Z,15.70
2022-10-06T15:32:03.665Z,15.62
2022-10-06T15:34:53.798Z,15.57
2022-10-06T15:37:27.455Z,15.58
2022-10-06T15:39:58.770Z,15.55
2022-10-06T15:42:28.206Z,15.50
2022-10-06T15:44:56.182Z,15.50
2022-10-06T15:47:24.769Z,15.44
2022-10-06T15:49:52.765Z,15.40
2022-10-06T15:52:21.077Z,15.40
2022-10-06T15:54:49.899Z,15.43
2022-10-06T15:57:20.936Z,15.42
2022-10-06T15:59:51.433Z,15.38
2022-10-06T16:02:21.093Z,15.33
2022-10-06T16:05:17.837Z,15.29
2022-10-06T16:07:45.820Z,15.31
2022-10-06T16:10:14.027Z,15.27
2022-10-06T16:12:41.961Z,15.27
2022-10-06T16:15:12.043Z,15.23
2022-10-06T16:17:40.200Z,15.22
2022-10-06T16:20:09.842Z,15.19
2022-10-06T16:22:41.731Z,15.16
2022-10-06T16:25:10.433Z,15.12
2022-10-06T16:27:39.503Z,15.09
2022-10-06T16:30:09.261Z,15.09
2022-10-06T16:32:38.795Z,15.04
2022-10-06T16:35:07.974Z,15.02
2022-10-06T16:37:35.893Z,15.03
2022-10-06T16:40:07.228Z,14.98
2022-10-06T16:42:35.161Z,14.97
2022-10-06T16:45:03.068Z,14.95
2022-10-06T16:47:31.279Z,14.93
2022-10-06T16:50:00.561Z,14.89
2022-10-06T16:53:24.807Z,14.88
2022-10-06T16:56:36.927Z,14.86
2022-10-06T16:59:31.080Z,14.82
2022-10-06T17:02:12.979Z,14.77
2022-10-06T17:05:11.898Z,14.76
2022-10-06T17:08:05.166Z,14.74
2022-10-06T17:10:44.944Z,14.75
2022-10-06T17:13:51.235Z,14.70
2022-10-06T17:16:48.020Z,14.72
2022-10-06T17:19:31.746Z,14.68
2022-10-06T17:22:22.358Z,14.66
2022-10-06T17:28:06.856Z,14.62
2022-10-06T17:30:45.633Z,14.61
2022-10-06T17:33:39.153Z,14.59
2022-10-06T17:36:25.816Z,14.59
2022-10-06T17:39:05.952Z,14.57
2022-10-06T17:41:39.613Z,14.59
2022-10-06T17:44:36.634Z,14.55
2022-10-06T17:47:22.442Z,14.56
2022-10-06T17:50:13.531Z,14.54
2022-10-06T17:53:18.192Z,14.54
2022-10-06T17:56:21.848Z,14.52
2022-10-06T17:59:26.278Z,14.50
2022-10-06T18:02:20.101Z,14.49
2022-10-06T18:05:04.351Z,14.46
2022-10-06T18:08:03.796Z,14.47
2022-10-06T18:10:59.696Z,14.42
2022-10-06T18:16:42.022Z,14.32
2022-10-06T18:19:33.312Z,14.29
2022-10-06T18:22:17.885Z,14.25
2022-10-06T18:28:52.396Z,14.14
2022-10-06T18:34:12.022Z,14.11
2022-10-06T18:39:00.477Z,14.03
2022-10-06T18:48:30.115Z,13.96
2022-10-06T18:54:06.410Z,13.94
2022-10-06T18:56:37.541Z,13.91
2022-10-06T18:59:08.881Z,13.84
2022-10-06T19:01:41.425Z,13.84
2022-10-06T19:04:14.861Z,13.78
2022-10-06T19:06:56.486Z,13.74
2022-10-06T19:09:26.327Z,13.71
2022-10-06T19:11:56.861Z,13.68
2022-10-06T19:14:26.415Z,13.68
2022-10-06T19:16:56.419Z,13.66
2022-10-06T19:19:27.157Z,13.58
2022-10-06T19:21:59.447Z,13.56
2022-10-06T19:24:30.075Z,13.50
2022-10-06T19:26:59.343Z,13.48
2022-10-06T19:29:27.954Z,13.47
2022-10-06T19:32:11.530Z,13.37
2022-10-06T19:34:40.779Z,13.36
2022-10-06T19:37:09.297Z,13.36
2022-10-06T19:39:43.018Z,13.31
2022-10-06T19:42:29.398Z,13.25
2022-10-06T19:44:58.065Z,13.20
2022-10-06T19:47:27.012Z,13.15
2022-10-06T19:50:02.152Z,13.13
2022-10-06T19:52:32.426Z,13.06
2022-10-06T19:55:00.976Z,13.00
2022-10-06T19:57:29.768Z,12.92
2022-10-06T19:59:57.711Z,12.92
2022-10-06T20:02:25.614Z,12.91
2022-10-06T20:04:53.500Z,12.88
2022-10-06T20:07:25.528Z,12.83
2022-10-06T20:09:53.471Z,12.82
2022-10-06T20:12:24.876Z,12.81
2022-10-06T20:14:53.834Z,12.77
2022-10-06T20:17:23.128Z,12.74
2022-10-06T20:19:56.734Z,12.74
2022-10-06T20:22:27.225Z,12.73
2022-10-06T20:24:55.328Z,12.68
2022-10-06T20:27:23.260Z,12.71
2022-10-06T20:29:51.228Z,12.65
2022-10-06T20:32:19.127Z,12.66
2022-10-06T20:34:47.037Z,12.67
2022-10-06T20:37:15.055Z,12.65
2022-10-06T20:40:01.524Z,12.64
2022-10-06T20:42:31.441Z,12.60
2022-10-06T20:44:59.494Z,12.58
2022-10-06T20:47:27.861Z,12.61
2022-10-06T20:49:55.722Z,12.59
2022-10-06T20:52:24.219Z,12.58
2022-10-06T20:54:53.527Z,12.57
2022-10-06T20:57:21.557Z,12.54
2022-10-06T20:59:49.541Z,12.52
2022-10-06T21:02:17.855Z,12.50
2022-10-06T21:04:45.769Z,12.50
2022-10-06T21:07:14.170Z,12.51
2022-10-06T21:09:42.071Z,12.49
2022-10-06T21:12:11.424Z,12.46
2022-10-06T21:14:42.234Z,12.46
2022-10-06T21:17:10.151Z,12.48
2022-10-06T21:19:38.173Z,12.48
2022-10-06T21:22:06.479Z,12.49
2022-10-06T21:24:34.381Z,12.47
2022-10-06T21:27:03.106Z,12.45
2022-10-06T21:29:32.395Z,12.44
2022-10-06T21:32:00.429Z,12.47
2022-10-06T21:34:28.325Z,12.46
2022-10-06T21:36:56.602Z,12.45
2022-10-06T21:39:24.453Z,12.44
2022-10-06T21:41:52.342Z,12.42
2022-10-06T21:44:20.259Z,12.43
2022-10-06T21:46:51.120Z,12.38
2022-10-06T21:49:21.364Z,12.37
2022-10-06T21:51:51.012Z,12.35
2022-10-06T21:54:20.038Z,12.32
2022-10-06T21:56:47.929Z,12.30
2022-10-06T21:59:15.926Z,12.26
2022-10-06T22:01:45.725Z,12.26
2022-10-06T22:04:16.234Z,12.25
2022-10-06T22:06:49.807Z,12.25
2022-10-06T22:09:22.529Z,12.23
2022-10-06T22:11:50.623Z,12.20
2022-10-06T22:14:20.250Z,12.19
2022-10-06T22:16:48.482Z,12.19
2022-10-06T22:19:18.389Z,12.18
2022-10-06T22:21:48.523Z,12.16
2022-10-06T22:24:18.650Z,12.11
2022-10-06T22:26:47.382Z,12.11
2022-10-06T22:29:17.926Z,12.08
2022-10-06T22:31:47.528Z,12.04
2022-10-06T22:34:18.675Z,12.04
2022-10-06T22:36:46.684Z,12.04
2022-10-06T22:39:14.584Z,12.00
2022-10-06T22:41:42.619Z,11.96
2022-10-06T22:44:10.620Z,11.93
2022-10-06T22:46:39.115Z,11.90
2022-10-06T22:49:07.422Z,11.87
2022-10-06T22:51:36.897Z,11.86
2022-10-06T22:54:05.221Z,11.85
2022-10-06T22:56:34.789Z,11.84
2022-10-06T22:59:02.769Z,11.85
2022-10-06T23:01:31.507Z,11.84
2022-10-06T23:03:59.766Z,11.85
2022-10-06T23:06:29.648Z,11.84
2022-10-06T23:08:59.193Z,11.82
2022-10-06T23:11:27.069Z,11.83
2022-10-06T23:13:55.026Z,11.83
2022-10-06T23:16:23.404Z,11.80
2022-10-06T23:18:51.850Z,11.74
2022-10-06T23:21:22.535Z,11.74
2022-10-06T23:23:52.293Z,11.72
2022-10-06T23:26:23.229Z,11.72
2022-10-06T23:28:56.006Z,11.70
2022-10-06T23:31:24.612Z,11.67
2022-10-06T23:33:53.005Z,11.69
2022-10-06T23:36:21.959Z,11.67
2022-10-06T23:38:50.104Z,11.61
2022-10-06T23:41:18.008Z,11.64
2022-10-06T23:43:47.566Z,11.65
2022-10-06T23:46:15.880Z,11.66
2022-10-06T23:48:44.131Z,11.65
2022-10-06T23:51:14.181Z,11.66
2022-10-06T23:53:42.992Z,11.68
2022-10-06T23:56:11.478Z,11.70
2022-10-06T23:58:41.655Z,11.70
